createdAt,value
2022-11-08T00:09:57.285Z,4.47
2022-11-08T00:20:20.311Z,4.40
2022-11-08T00:30:41.875Z,4.10
2022-11-08T00:41:04.538Z,4.25
2022-11-08T00:51:26.169Z,5.30
2022-11-08T01:01:49.435Z,4.68
2022-11-08T01:12:11.084Z,4.93
2022-11-08T01:22:33.786Z,5.07
2022-11-08T01:32:55.370Z,5.22
2022-11-08T01:43:38.548Z,5.00
2022-11-08T01:54:01.052Z,5.25
2022-11-08T02:04:24.190Z,5.50
2022-11-08T02:14:45.686Z,5.28
2022-11-08T02:25:09.170Z,5.82
2022-11-08T02:35:30.570Z,5.07
2022-11-08T02:45:54.361Z,4.75
2022-11-08T02:56:15.934Z,5.60
2022-11-08T03:06:38.878Z,4.80
2022-11-08T03:17:00.387Z,5.25
2022-11-08T03:27:23.451Z,5.47
2022-11-08T03:37:51.845Z,5.97
2022-11-08T03:48:14.654Z,5.55
2022-11-08T03:58:37.095Z,6.40
2022-11-08T04:09:00.341Z,5.68
2022-11-08T04:19:41.844Z,5.72
2022-11-08T04:30:05.365Z,5.38
2022-11-08T04:40:26.832Z,5.85
2022-11-08T04:50:49.625Z,6.00
2022-11-08T05:01:15.493Z,5.95
2022-11-08T05:11:38.633Z,7.53
2022-11-08T05:22:17.603Z,5.97
2022-11-08T05:32:40.734Z,6.30
2022-11-08T05:43:03.683Z,5.65
2022-11-08T05:53:26.715Z,6.07
2022-11-08T06:03:48.623Z,6.00
2022-11-08T06:14:14.188Z,5.43
2022-11-08T06:24:48.739Z,6.88
2022-11-08T06:35:11.993Z,7.45
2022-11-08T06:45:35.817Z,6.75
2022-11-08T06:55:59.867Z,6.72
2022-11-08T07:06:24.014Z,7.00
2022-11-08T07:16:47.167Z,8.18
2022-11-08T07:27:11.582Z,6.22
2022-11-08T07:37:39.134Z,6.07
2022-11-08T07:48:01.020Z,5.55
2022-11-08T07:58:23.614Z,6.75
2022-11-08T08:08:45.111Z,6.18
2022-11-08T08:19:09.428Z,5.82
2022-11-08T08:29:31.205Z,6.47
2022-11-08T08:39:57.062Z,6.63
2022-11-08T08:50:18.639Z,4.47
2022-11-08T09:11:24.846Z,3.80
2022-11-08T09:21:47.800Z,3.65
2022-11-08T09:32:09.406Z,3.75
2022-11-08T09:42:52.474Z,3.92
2022-11-08T09:53:19.452Z,3.63
2022-11-08T10:03:46.144Z,3.13
2022-11-08T10:14:21.420Z,3.08
2022-11-08T10:24:51.957Z,2.83
2022-11-08T10:35:25.213Z,3.15
2022-11-08T10:45:48.460Z,3.15
2022-11-08T10:56:10.263Z,3.00
2022-11-08T11:06:34.787Z,2.83
2022-11-08T11:17:03.670Z,3.03
2022-11-08T11:27:31.358Z,2.72
2022-11-08T11:37:57.574Z,3.38
2022-11-08T11:48:27.347Z,2.60
2022-11-08T11:59:05.215Z,2.17
2022-11-08T12:09:47.317Z,2.78
2022-11-08T12:20:29.213Z,2.70
2022-11-08T12:31:06.121Z,3.03
2022-11-08T12:41:40.058Z,2.00
2022-11-08T12:52:17.035Z,2.30
2022-11-08T13:02:40.287Z,2.78
2022-11-08T13:13:20.411Z,1.92
2022-11-08T13:23:42.178Z,2.00
2022-11-08T13:34:49.592Z,2.05
2022-11-08T13:45:30.452Z,2.60
2022-11-08T13:55:58.423Z,2.53
2022-11-08T14:06:28.507Z,2.45
2022-11-08T14:17:21.103Z,2.50
2022-11-08T14:27:43.428Z,2.75
2022-11-08T14:38:17.947Z,2.33
2022-11-08T14:48:50.572Z,2.93
2022-11-08T14:59:14.375Z,3.25
2022-11-08T15:09:36.920Z,3.50
2022-11-08T15:20:07.354Z,3.05
2022-11-08T15:30:39.227Z,3.28
2022-11-08T15:41:05.030Z,2.85
2022-11-08T15:51:27.109Z,2.97
2022-11-08T16:01:55.185Z,3.67
2022-11-08T16:12:17.741Z,4.03
2022-11-08T16:22:40.662Z,3.55
2022-11-08T16:33:02.207Z,3.72
2022-11-08T16:43:25.158Z,3.83
2022-11-08T16:53:47.639Z,4.63
2022-11-08T17:04:39.900Z,4.43
2022-11-08T17:15:01.631Z,3.92
2022-11-08T17:25:25.348Z,3.80
2022-11-08T17:35:48.565Z,4.38
2022-11-08T17:58:40.609Z,4.90
2022-11-08T18:20:33.602Z,3.97
2022-11-08T18:30:54.998Z,4.80
2022-11-08T18:41:20.185Z,4.18
2022-11-08T18:51:41.720Z,5.03
2022-11-08T19:02:04.537Z,4.85
2022-11-08T19:12:30.498Z,4.60
2022-11-08T19:23:19.332Z,4.30
2022-11-08T19:33:45.368Z,5.13
2022-11-08T19:44:08.563Z,5.18
2022-11-08T19:54:30.509Z,5.75
2022-11-08T20:04:53.679Z,5.07
2022-11-08T20:15:16.204Z,5.93
2022-11-08T20:25:39.567Z,6.03
2022-11-08T20:36:08.283Z,5.53
2022-11-08T20:46:32.473Z,5.07
2022-11-08T20:56:55.019Z,6.07
2022-11-08T21:18:00.014Z,5.05
2022-11-08T21:28:23.273Z,4.65
2022-11-08T21:38:46.692Z,5.15
2022-11-08T21:49:13.592Z,4.60
2022-11-08T21:59:44.054Z,4.55
2022-11-08T22:10:12.578Z,4.18
2022-11-08T22:20:33.899Z,4.63
2022-11-08T22:30:56.939Z,4.53
2022-11-08T22:41:17.009Z,4.78
2022-11-08T22:51:43.915Z,4.18
2022-11-08T23:02:08.477Z,4.05
2022-11-08T23:12:49.962Z,4.50
2022-11-08T23:23:29.222Z,4.15
2022-11-08T23:33:52.307Z,4.13
2022-11-08T23:44:27.839Z,4.32
2022-11-08T23:54:52.898Z,4.50
